Quick Links (Output Below):   Max & Min Temps   /   Climate Reports   /   Zone Forecasts
River Forecasts   /   Forestry Forecasts   /   Aviation Forecasts   /   Radars   /   Features

Terminal Aerodrome Forecast (El Dorado)

Pick a Site:
Arkadelphia | El Dorado | Fayetteville | Fort Smith | Harrison | Highfill | Hot Springs | Jonesboro
Little Rock | Monticello | Mountain Home | Pine Bluff | Texarkana
 Forecast 

KELD 211120Z 2112/2212 03003KT 5SM BR SKC
      TEMPO 2112/2114 3SM BR
     FM211500 VRB03KT P6SM SCT250
     FM211800 12005KT P6SM SCT250
     FM220000 13003KT P6SM SCT250
     FM220600 16004KT 4SM BR OVC015=


 Latest METARs (Observations) 
How to Decode METARs
13Z KELD 211253Z AUTO 00000KT 5SM BR CLR 00/M01 A3018 RMK AO2 SLP222
         T00001006
         
12Z KELD 211153Z AUTO 34003KT 5SM BR CLR 00/M01 A3017 RMK AO2 SLP218
         I1000 I6000 T00001006 10033 20000 55006
         
11Z KELD 211053Z AUTO 03003KT 5SM BR CLR 01/M01 A3017 RMK AO2 SLP215
         T00061006
         
10Z KELD 210953Z AUTO 00000KT 10SM CLR 01/M01 A3017 RMK AO2 SLP216
         T00061006
         
09Z KELD 210853Z AUTO 00000KT 5SM BR CLR 01/00 A3019 RMK AO2 SLP223
         T00110000 58011
         
08Z KELD 210753Z AUTO 00000KT 4SM BR CLR 01/01 A3020 RMK AO2 SLP228
         T00110006
         
07Z KELD 210653Z AUTO 00000KT 7SM CLR 02/02 A3021 RMK AO2 SLP230
         T00220017
         
06Z KELD 210553Z AUTO 00000KT 10SM CLR 03/02 A3022 RMK AO2 SLP234
         T00280022 10067 20028 401330028 50001
         
05Z KELD 210453Z AUTO 00000KT 10SM CLR 04/03 A3023 RMK AO2 SLP237
         T00440033
         
04Z KELD 210353Z AUTO 04005KT 10SM CLR 04/03 A3022 RMK AO2 SLP232
         T00440028
         
***** Today's Observations (Above) *****


Back to Main Page
http://www.srh.noaa.gov/lzk/qfcst.php

USA.gov is the U.S. government's official web portal to all federal, state and local government web resources and services.